Pays
Station

 

Conditions  météo  pour  Reggio Calabria  -  Italie    Italie

  
23 °C
    
 
 

METAR pour Reggio Calabria :

LICR 160350Z 04010KT 9999 FEW060 23/19 Q1017

 

Voici le bulletin pour Reggio Calabria - Italie.
 
Le bulletin a été fait il y a 53 minutes, à 03:50 UTC .
Le vent soufflait à la vitesse de 5.1 mètres par seconde de Nord-est (040°).
 
La température était de 23 °C, avec un point de rosée à 19 °C.
La température ressentie était de 23 °C.
 
La pression atmosphérique était de 1017 hPa.
L'humidité relative était de 78.2%.
 
Il y avait 1 à 2/8ème de nébulosité à une hauteur de 1829 mètres.
 
La visibilité globale était de supérieure à 10 kilomètres.
 

 
 
 

Pays :   A   B   C   D   E   F   G   H   I   J   K   L   M   N   O   P   Q   R   S   T   U   V   W   Y   Z

 

Partenaires :  Info Météo avec Met'info
Météo Marine avec MeteoMarine.net
Infos Site  |  Infos Légales  |  Crédits  |  Confidentialité
Contactez-nous  |  Ajouter aux favoris
© 2013-2019 METAR - Tous droits réservés